Time;durP1;ratioP1;P1;durP2;ratioP2;P2;SDS_P1;SDS_P2;PMS_P1;PMS_P2;Temp;Humidity;BMP_temperature;BMP_pressure;BME280_temperature;BME280_humidity;BME280_pressure;Samples;Min_cycle;Max_cycle;Signal;HPM_P1;HPM_P2
2023/07/16 00:00:23;;;;;;;7.82;3.08;;;;;;;17.02;67.37;100853.03;6116431;19;20031;-72
2023/07/16 00:02:28;;;;;;;8.00;2.85;;;;;;;17.09;66.58;100862.28;6117798;19;20084;-72
2023/07/16 00:04:34;;;;;;;7.00;2.75;;;;;;;17.13;66.38;100850.47;6115739;19;20042;-72
2023/07/16 00:06:43;;;;;;;7.40;2.92;;;;;;;17.12;66.45;100867.38;6115722;19;20023;-71
2023/07/16 00:08:48;;;;;;;11.25;3.42;;;;;;;17.10;66.82;100854.19;6116149;19;20026;-74
2023/07/16 00:10:53;;;;;;;9.43;2.92;;;;;;;17.12;66.33;100867.38;6115340;19;20039;-74
2023/07/16 00:12:59;;;;;;;10.50;3.30;;;;;;;17.09;66.62;100862.28;6117365;19;20047;-74
2023/07/16 00:15:06;;;;;;;8.95;3.63;;;;;;;17.08;66.82;100872.03;6116792;19;20025;-73
2023/07/16 00:17:11;;;;;;;8.88;2.88;;;;;;;17.07;66.75;100872.16;6102582;19;20010;-72
2023/07/16 00:19:17;;;;;;;12.57;3.70;;;;;;;17.11;66.51;100860.34;6116132;19;20082;-73
2023/07/16 00:21:22;;;;;;;7.80;2.70;;;;;;;17.11;66.41;100869.19;6116329;19;20090;-73
2023/07/16 00:23:33;;;;;;;9.00;3.38;;;;;;;17.13;66.37;100861.09;6114955;19;20007;-72
2023/07/16 00:25:35;;;;;;;10.70;3.65;;;;;;;17.09;66.78;100854.31;6115078;19;20054;-72
2023/07/16 00:27:41;;;;;;;10.90;3.33;;;;;;;17.07;66.78;100862.38;6113968;19;20344;-73
2023/07/16 00:29:46;;;;;;;7.47;2.92;;;;;;;17.02;66.98;100864.50;6117610;19;20007;-74
2023/07/16 00:31:48;;;;;;;10.48;3.55;;;;;;;17.02;67.07;100868.94;6116419;19;20046;-71
2023/07/16 00:33:53;;;;;;;9.48;3.17;;;;;;;17.08;67.05;100869.38;6117386;19;20014;-73
2023/07/16 00:35:58;;;;;;;8.55;3.20;;;;;;;17.04;67.02;100865.25;6116540;19;20090;-75
2023/07/16 00:38:01;;;;;;;8.70;3.60;;;;;;;17.00;67.48;100871.69;6115027;19;20011;-73
2023/07/16 00:40:13;;;;;;;9.52;4.28;;;;;;;17.02;67.40;100863.66;6116003;19;20468;-75
2023/07/16 00:42:18;;;;;;;11.18;3.55;;;;;;;17.07;67.11;100866.84;6112685;19;20018;-72
2023/07/16 00:44:21;;;;;;;7.25;2.88;;;;;;;17.06;67.38;100875.75;6115746;19;20080;-72
2023/07/16 00:46:27;;;;;;;8.35;3.20;;;;;;;17.11;67.12;100876.28;6116593;19;20019;-74
2023/07/16 00:48:33;;;;;;;7.97;3.25;;;;;;;17.09;67.58;100871.09;6115965;19;20067;-74
2023/07/16 00:50:43;;;;;;;11.55;3.42;;;;;;;17.09;67.37;100867.59;6116110;19;20006;-73
2023/07/16 00:52:48;;;;;;;11.85;4.82;;;;;;;17.09;67.77;100876.41;6114774;19;20451;-72
2023/07/16 00:54:53;;;;;;;8.32;3.58;;;;;;;17.07;67.87;100882.78;6114804;19;20030;-74
2023/07/16 00:57:01;;;;;;;7.55;2.92;;;;;;;17.09;67.93;100879.06;6116129;19;20534;-73
2023/07/16 00:59:04;;;;;;;8.82;4.40;;;;;;;17.10;67.93;100879.91;6114436;19;20015;-75
2023/07/16 01:01:16;;;;;;;8.25;3.42;;;;;;;17.04;68.43;100883.81;6115480;19;20039;-74
2023/07/16 01:03:21;;;;;;;7.10;2.92;;;;;;;17.04;68.53;100875.00;6117160;19;20006;-74
2023/07/16 01:05:33;;;;;;;11.07;3.50;;;;;;;16.97;68.73;100882.53;6115481;19;20501;-73
2023/07/16 01:07:40;;;;;;;10.88;3.95;;;;;;;16.97;68.74;100871.91;6117356;19;20336;-72
2023/07/16 01:09:45;;;;;;;9.30;4.07;;;;;;;17.03;68.64;100887.41;6114512;19;20473;-72
2023/07/16 01:11:49;;;;;;;9.07;3.45;;;;;;;17.04;68.58;100875.88;6116358;19;20003;-73
2023/07/16 01:13:58;;;;;;;12.07;4.65;;;;;;;17.08;68.60;100874.69;6116405;19;20006;-73
2023/07/16 01:16:06;;;;;;;11.68;4.15;;;;;;;17.00;69.12;100879.66;6116643;19;20381;-73
2023/07/16 01:18:11;;;;;;;10.40;3.63;;;;;;;16.97;69.37;100876.38;6115782;19;20015;-73
2023/07/16 01:20:16;;;;;;;11.93;4.07;;;;;;;16.94;69.46;100874.78;6113269;19;20090;-73
2023/07/16 01:22:41;;;;;;;10.02;3.63;;;;;;;16.95;69.59;100881.78;6117589;19;20350;-75
2023/07/16 01:25:03;;;;;;;13.48;4.25;;;;;;;16.93;69.59;100883.69;6117906;19;20401;-73
2023/07/16 01:27:32;;;;;;;11.13;4.18;;;;;;;17.01;69.05;100883.16;6116827;19;20035;-73
2023/07/16 01:29:44;;;;;;;13.93;4.15;;;;;;;17.03;68.79;100881.25;6115113;19;20011;-74
2023/07/16 01:31:53;;;;;;;8.68;3.45;;;;;;;16.99;69.04;100882.44;6115358;19;20098;-73
2023/07/16 01:34:03;;;;;;;11.82;4.28;;;;;;;17.06;68.82;100883.69;6114492;19;20059;-74
2023/07/16 01:36:10;;;;;;;12.20;3.88;;;;;;;17.05;68.67;100879.38;6115920;19;20018;-73
2023/07/16 01:38:16;;;;;;;11.48;4.78;;;;;;;17.02;69.15;100882.22;6111698;19;20504;-72
2023/07/16 01:40:22;;;;;;;18.20;5.55;;;;;;;17.05;69.00;100876.72;6112904;19;20028;-72
2023/07/16 01:42:30;;;;;;;12.70;4.70;;;;;;;17.04;68.83;100881.16;6115399;19;20483;-75
2023/07/16 01:44:36;;;;;;;10.50;4.05;;;;;;;16.98;69.15;100878.94;6114796;19;20023;-73
2023/07/16 01:46:43;;;;;;;12.43;5.28;;;;;;;17.04;68.61;100872.38;6114859;19;20022;-74
2023/07/16 01:48:49;;;;;;;12.65;4.78;;;;;;;17.07;68.57;100882.78;6114518;19;20033;-74
2023/07/16 01:50:58;;;;;;;12.40;4.78;;;;;;;17.16;68.23;100887.44;6114339;19;20022;-73
2023/07/16 01:53:03;;;;;;;10.23;4.38;;;;;;;17.10;68.24;100880.75;6114602;19;20046;-73
2023/07/16 01:55:12;;;;;;;11.20;5.05;;;;;;;17.13;68.52;100886.81;6113804;19;20031;-72
2023/07/16 01:57:17;;;;;;;17.60;4.78;;;;;;;17.10;68.78;100888.72;6112125;19;20042;-72
2023/07/16 01:59:23;;;;;;;11.45;4.40;;;;;;;17.09;69.05;100881.72;6113436;19;20031;-74
2023/07/16 02:01:28;;;;;;;13.20;4.63;;;;;;;17.03;69.26;100886.56;6112356;19;20022;-73
2023/07/16 02:03:36;;;;;;;12.63;4.28;;;;;;;17.08;68.97;100889.78;6112540;19;20026;-73
2023/07/16 02:05:41;;;;;;;9.48;4.32;;;;;;;17.05;69.24;100893.47;6114305;19;20373;-73
2023/07/16 02:07:46;;;;;;;15.70;4.22;;;;;;;17.02;69.56;100885.72;6112782;19;20398;-72
2023/07/16 02:09:51;;;;;;;12.68;4.93;;;;;;;17.05;69.62;100884.66;6112735;19;20086;-72
2023/07/16 02:11:56;;;;;;;11.52;4.72;;;;;;;17.06;69.76;100889.91;6111554;19;20082;-72
2023/07/16 02:14:00;;;;;;;11.43;4.72;;;;;;;17.06;69.84;100883.69;6114171;19;20078;-72
2023/07/16 02:16:06;;;;;;;13.18;4.72;;;;;;;17.05;69.86;100877.56;6113172;19;20097;-72
2023/07/16 02:18:12;;;;;;;9.63;4.07;;;;;;;16.95;70.25;100879.13;6113502;19;20392;-72
2023/07/16 02:20:20;;;;;;;13.05;4.65;;;;;;;16.94;70.48;100873.94;6108960;19;20039;-72
2023/07/16 02:22:25;;;;;;;14.43;5.35;;;;;;;16.94;70.62;100879.25;6112772;19;20014;-71
2023/07/16 02:24:32;;;;;;;10.10;4.68;;;;;;;16.99;70.29;100875.31;6112006;19;20034;-72
2023/07/16 02:26:40;;;;;;;17.83;5.32;;;;;;;17.00;70.23;100878.81;6111771;19;20014;-71
2023/07/16 02:28:45;;;;;;;11.82;4.75;;;;;;;17.00;70.08;100871.69;6111411;19;20089;-72
2023/07/16 02:30:52;;;;;;;15.57;5.18;;;;;;;17.06;69.94;100879.28;6113474;19;20527;-72
2023/07/16 02:33:00;;;;;;;14.95;5.05;;;;;;;17.06;69.94;100876.63;6112794;19;20032;-73
2023/07/16 02:35:06;;;;;;;15.98;4.88;;;;;;;17.04;70.32;100881.16;6112066;19;20046;-73
2023/07/16 02:37:14;;;;;;;11.00;4.40;;;;;;;17.09;69.67;100880.88;6112346;19;20019;-73
2023/07/16 02:39:19;;;;;;;16.25;4.45;;;;;;;17.07;70.46;100888.09;6112411;19;20042;-73
2023/07/16 02:41:24;;;;;;;11.15;5.07;;;;;;;17.04;70.35;100880.31;6112558;19;20007;-73
2023/07/16 02:43:31;;;;;;;12.80;5.32;;;;;;;17.01;70.84;100884.03;6111366;19;20025;-72
2023/07/16 02:45:36;;;;;;;14.38;4.97;;;;;;;16.98;70.66;100889.56;6112349;19;20100;-74
2023/07/16 02:47:41;;;;;;;12.52;4.75;;;;;;;16.98;70.83;100878.94;6112593;19;20022;-74
2023/07/16 02:49:46;;;;;;;13.75;5.03;;;;;;;16.97;70.96;100887.00;6111633;19;20014;-73
2023/07/16 02:51:51;;;;;;;9.48;4.15;;;;;;;16.94;71.06;100885.38;6111374;19;20416;-73
2023/07/16 02:53:59;;;;;;;10.23;4.03;;;;;;;16.89;71.29;100891.00;6108393;19;20013;-72
2023/07/16 02:56:05;;;;;;;10.93;4.47;;;;;;;16.82;71.76;100896.81;6111332;19;20468;-73
2023/07/16 02:58:10;;;;;;;12.70;4.50;;;;;;;16.80;71.61;100888.13;6112676;19;20426;-72
2023/07/16 03:00:16;;;;;;;15.35;4.38;;;;;;;16.78;71.95;100892.66;6104737;19;20022;-72
2023/07/16 03:02:21;;;;;;;11.60;4.00;;;;;;;16.70;72.43;100895.78;6109460;19;20011;-73
2023/07/16 03:04:27;;;;;;;11.65;4.00;;;;;;;16.61;72.70;100897.25;6109977;19;20207;-72
2023/07/16 03:06:32;;;;;;;9.88;3.83;;;;;;;16.58;72.90;100892.13;6110875;19;20101;-74
2023/07/16 03:08:40;;;;;;;10.45;4.07;;;;;;;16.67;72.97;100899.50;6112587;19;20488;-72
2023/07/16 03:10:48;;;;;;;11.70;3.70;;;;;;;16.57;73.69;100895.72;6111186;19;20018;-72
2023/07/16 03:12:53;;;;;;;12.50;4.10;;;;;;;16.57;73.30;100898.38;6112095;19;20147;-72
2023/07/16 03:14:56;;;;;;;14.70;4.00;;;;;;;16.56;73.46;100899.34;6112444;19;20007;-73
2023/07/16 03:17:03;;;;;;;12.80;4.38;;;;;;;16.57;73.32;100909.00;6111301;19;20026;-73
2023/07/16 03:19:10;;;;;;;11.25;4.07;;;;;;;16.54;73.80;100913.66;6109101;19;20018;-73
2023/07/16 03:21:15;;;;;;;11.85;4.28;;;;;;;16.55;73.67;100918.00;6112326;19;20014;-72
2023/07/16 03:23:20;;;;;;;10.38;3.80;;;;;;;16.56;73.74;100922.34;6111643;19;20058;-73
2023/07/16 03:25:25;;;;;;;14.55;5.15;;;;;;;16.59;73.50;100904.44;6112584;19;20019;-73
2023/07/16 03:27:33;;;;;;;12.95;4.20;;;;;;;16.58;73.35;100928.41;6110775;19;20019;-72
2023/07/16 03:29:38;;;;;;;10.00;3.72;;;;;;;16.57;73.46;100921.41;6111792;19;20011;-74
2023/07/16 03:31:44;;;;;;;11.75;3.58;;;;;;;16.59;73.27;100920.38;6110820;19;20021;-70
2023/07/16 03:33:49;;;;;;;10.43;3.55;;;;;;;16.59;73.28;100925.66;6110762;19;20017;-72
2023/07/16 03:35:54;;;;;;;11.30;4.05;;;;;;;16.56;73.59;100932.97;6110806;19;20141;-73
2023/07/16 03:37:59;;;;;;;10.52;4.65;;;;;;;16.55;73.77;100929.47;6110984;19;20022;-72
2023/07/16 03:40:16;;;;;;;12.43;4.70;;;;;;;16.58;73.82;100899.22;6111372;19;19999;-73
2023/07/16 03:42:22;;;;;;;13.55;3.78;;;;;;;16.58;74.00;100937.22;6107688;19;20035;-73
2023/07/16 03:44:29;;;;;;;14.25;4.55;;;;;;;16.61;74.09;100929.09;6109312;19;20010;-72
2023/07/16 03:46:37;;;;;;;11.57;4.85;;;;;;;16.65;74.24;100954.44;6111053;19;20027;-72
2023/07/16 03:48:43;;;;;;;11.57;5.65;;;;;;;16.69;73.95;100947.13;6112185;19;20103;-73
2023/07/16 03:50:50;;;;;;;12.95;5.22;;;;;;;16.75;73.75;100935.31;6109440;19;20052;-73
2023/07/16 03:52:55;;;;;;;14.15;5.20;;;;;;;16.76;73.42;100937.00;6109014;19;20467;-72
2023/07/16 03:55:02;;;;;;;13.40;5.00;;;;;;;16.76;73.73;100950.25;6110475;19;20027;-74
2023/07/16 03:57:11;;;;;;;12.00;4.72;;;;;;;16.80;73.25;100957.97;6109053;19;20014;-74
2023/07/16 03:59:16;;;;;;;14.07;5.57;;;;;;;16.81;72.96;100956.16;6111303;19;20105;-74
2023/07/16 04:01:24;;;;;;;14.27;4.50;;;;;;;16.82;72.75;100948.09;6109997;19;20429;-73
2023/07/16 04:03:29;;;;;;;12.52;5.57;;;;;;;16.77;73.16;100951.94;6110687;19;20003;-71
2023/07/16 04:05:34;;;;;;;12.45;4.63;;;;;;;16.76;72.99;100960.88;6110525;19;20010;-73
2023/07/16 04:07:39;;;;;;;12.10;4.50;;;;;;;16.69;73.52;100965.72;6110432;19;20018;-72
2023/07/16 04:09:45;;;;;;;13.50;4.82;;;;;;;16.66;73.04;100964.09;6111086;19;20471;-72
2023/07/16 04:11:50;;;;;;;12.93;4.35;;;;;;;16.69;73.09;100973.66;6109832;19;20466;-72
2023/07/16 04:13:55;;;;;;;12.20;5.05;;;;;;;16.67;72.87;100968.47;6110710;19;20435;-73
2023/07/16 04:16:01;;;;;;;11.95;4.50;;;;;;;16.60;72.88;100975.13;6108733;19;20084;-75
2023/07/16 04:18:09;;;;;;;11.70;4.65;;;;;;;16.63;72.36;100963.47;6110612;19;20014;-73
2023/07/16 04:20:15;;;;;;;11.55;5.35;;;;;;;16.63;72.45;100974.06;6108755;19;20011;-71
2023/07/16 04:22:20;;;;;;;12.23;4.70;;;;;;;16.62;72.45;100973.22;6109092;19;20010;-73
2023/07/16 04:24:26;;;;;;;11.95;4.90;;;;;;;16.68;72.16;100972.81;6109994;19;20084;-73
2023/07/16 04:26:31;;;;;;;13.63;3.97;;;;;;;16.72;72.05;100962.88;6111944;19;20085;-73
2023/07/16 04:28:40;;;;;;;12.93;5.15;;;;;;;16.78;72.10;100961.66;6108986;19;20086;-73
2023/07/16 04:30:45;;;;;;;14.05;4.40;;;;;;;16.83;71.95;100964.88;6111595;19;20067;-74
2023/07/16 04:32:51;;;;;;;11.02;5.38;;;;;;;16.86;71.77;100983.25;6110858;19;20011;-73
2023/07/16 04:34:59;;;;;;;12.80;4.55;;;;;;;16.91;71.18;100975.84;6111674;19;20011;-72
2023/07/16 04:37:04;;;;;;;13.25;5.07;;;;;;;16.94;70.91;100977.44;6116489;19;20078;-71
2023/07/16 04:39:10;;;;;;;12.85;5.75;;;;;;;16.98;70.15;100990.44;6116934;19;20031;-71
2023/07/16 04:41:15;;;;;;;11.57;4.47;;;;;;;16.98;70.36;100987.78;6117125;19;20126;-71
2023/07/16 04:43:20;;;;;;;14.25;5.70;;;;;;;16.98;69.59;100982.47;6117459;19;20014;-72
2023/07/16 04:45:25;;;;;;;12.93;4.60;;;;;;;16.98;69.62;100990.44;6115719;19;20018;-73
2023/07/16 04:47:33;;;;;;;14.55;5.93;;;;;;;16.98;69.35;100994.88;6116125;19;20098;-73
2023/07/16 04:49:39;;;;;;;14.32;5.03;;;;;;;17.01;69.02;100999.97;6115723;19;20011;-74
2023/07/16 04:51:47;;;;;;;16.05;6.20;;;;;;;16.97;68.51;101007.28;6115988;19;20381;-74
2023/07/16 04:53:52;;;;;;;12.77;5.18;;;;;;;17.08;68.07;101009.25;6114932;19;20015;-75
2023/07/16 04:55:58;;;;;;;9.27;4.93;;;;;;;17.21;67.63;101002.19;6115932;19;20542;-72
2023/07/16 04:58:03;;;;;;;11.90;4.75;;;;;;;17.28;67.04;100992.03;6115472;19;20011;-72
2023/07/16 05:00:11;;;;;;;11.70;4.68;;;;;;;17.31;67.01;101003.28;6117484;19;20014;-73
2023/07/16 05:02:17;;;;;;;10.20;4.78;;;;;;;17.38;66.55;100997.56;6112091;19;20393;-73
2023/07/16 05:04:22;;;;;;;11.68;4.82;;;;;;;17.47;65.86;101008.44;6112127;19;20011;-75
2023/07/16 05:06:30;;;;;;;13.70;4.55;;;;;;;17.50;65.70;100999.41;6114269;19;20024;-72
2023/07/16 05:08:38;;;;;;;9.38;4.40;;;;;;;17.53;65.72;101007.16;6114989;19;20522;-73
2023/07/16 05:10:43;;;;;;;12.30;5.05;;;;;;;17.57;65.27;101014.00;6115230;19;20015;-73
2023/07/16 05:12:48;;;;;;;13.52;5.47;;;;;;;17.77;64.45;101020.59;6116424;19;20085;-71
2023/07/16 05:14:54;;;;;;;10.75;4.68;;;;;;;17.77;64.23;101013.50;6113403;19;20011;-73
2023/07/16 05:16:59;;;;;;;11.20;4.25;;;;;;;17.90;64.30;101004.69;6115557;19;20010;-73
2023/07/16 05:19:07;;;;;;;8.82;4.40;;;;;;;17.92;63.97;101013.44;6115406;19;20529;-73
2023/07/16 05:21:13;;;;;;;12.00;4.90;;;;;;;17.98;64.55;101003.25;6113696;19;20015;-73
2023/07/16 05:23:18;;;;;;;12.38;4.68;;;;;;;18.06;64.22;101017.78;6114065;19;20015;-73
2023/07/16 05:25:26;;;;;;;13.38;4.55;;;;;;;18.12;64.39;101012.91;6114913;19;20018;-73
2023/07/16 05:27:36;;;;;;;12.53;4.43;;;;;;;18.23;64.36;101014.81;6113833;19;20086;-72
2023/07/16 05:29:40;;;;;;;11.48;4.35;;;;;;;18.33;64.21;101013.22;6113739;19;20073;-72
2023/07/16 05:31:48;;;;;;;9.35;3.95;;;;;;;18.40;64.18;101017.16;6115051;19;20018;-72
2023/07/16 05:33:53;;;;;;;14.10;4.65;;;;;;;18.70;63.66;101020.41;6115054;19;20039;-72
2023/07/16 05:35:58;;;;;;;10.88;4.38;;;;;;;18.84;63.27;101028.28;6115049;19;20403;-71
2023/07/16 05:38:01;;;;;;;12.05;4.45;;;;;;;18.75;63.06;101016.50;6114269;19;20019;-72
2023/07/16 05:40:08;;;;;;;11.57;5.20;;;;;;;18.64;64.10;101030.53;6114792;19;20404;-73
2023/07/16 05:42:17;;;;;;;12.30;4.93;;;;;;;18.32;63.67;101022.16;6108801;19;20394;-72
2023/07/16 05:44:20;;;;;;;12.95;4.82;;;;;;;18.45;63.94;101027.47;6114868;19;20368;-73
2023/07/16 05:46:25;;;;;;;13.52;4.93;;;;;;;18.18;64.03;101027.59;6114501;19;20043;-72
2023/07/16 05:48:31;;;;;;;9.90;4.22;;;;;;;18.41;63.82;101047.28;6114212;19;20015;-72
2023/07/16 05:50:36;;;;;;;13.07;4.90;;;;;;;18.30;63.14;101034.72;6111339;19;20082;-72
2023/07/16 05:52:41;;;;;;;13.23;4.88;;;;;;;18.17;63.63;101044.53;6112645;19;20090;-73
2023/07/16 05:54:47;;;;;;;17.27;5.13;;;;;;;18.09;63.95;101052.16;6112076;19;20021;-72
2023/07/16 05:56:52;;;;;;;12.88;4.55;;;;;;;18.14;64.20;101060.66;6113885;19;20014;-72
2023/07/16 05:58:59;;;;;;;15.82;5.55;;;;;;;18.13;63.76;101045.69;6114751;19;20051;-73
2023/07/16 06:01:06;;;;;;;10.63;4.75;;;;;;;18.40;63.38;101048.22;6112565;19;20504;-72
2023/07/16 06:03:11;;;;;;;12.95;5.10;;;;;;;18.43;62.94;101054.19;6113268;19;20106;-72
2023/07/16 06:05:17;;;;;;;10.68;4.53;;;;;;;18.39;62.29;101055.34;6112711;19;20010;-71
2023/07/16 06:07:22;;;;;;;17.83;6.38;;;;;;;18.49;62.04;101049.41;6115725;19;20022;-72
2023/07/16 06:09:29;;;;;;;10.65;5.20;;;;;;;18.51;61.84;101040.34;6113326;19;20320;-72
2023/07/16 06:11:34;;;;;;;12.93;4.95;;;;;;;18.54;61.64;101052.59;6113303;19;20364;-73
2023/07/16 06:13:41;;;;;;;12.85;5.15;;;;;;;18.95;60.42;101056.78;6113397;19;20455;-72
2023/07/16 06:15:50;;;;;;;18.52;5.93;;;;;;;18.88;60.51;101055.53;6113721;19;20539;-72
2023/07/16 06:17:55;;;;;;;14.40;5.68;;;;;;;19.26;59.87;101063.41;6115975;19;20102;-73
2023/07/16 06:20:04;;;;;;;13.60;5.53;;;;;;;19.23;60.44;101067.13;6114094;19;20043;-72
2023/07/16 06:22:09;;;;;;;12.75;4.20;;;;;;;19.77;59.16;101068.50;6115189;19;20015;-74
2023/07/16 06:24:14;;;;;;;11.25;4.65;;;;;;;19.47;59.80;101068.97;6115950;19;20035;-72
2023/07/16 06:26:21;;;;;;;11.45;5.35;;;;;;;18.94;61.68;101068.41;6115005;19;20010;-72
2023/07/16 06:28:28;;;;;;;10.93;4.55;;;;;;;18.70;63.33;101071.84;6113248;19;19999;-72
2023/07/16 06:30:33;;;;;;;12.10;5.05;;;;;;;18.71;63.67;101070.00;6112778;19;20039;-74
2023/07/16 06:32:41;;;;;;;16.17;4.95;;;;;;;18.91;63.14;101069.47;6112713;19;20018;-72
2023/07/16 06:34:46;;;;;;;12.70;4.95;;;;;;;19.01;62.29;101074.97;6113901;19;20035;-72
2023/07/16 06:36:51;;;;;;;13.57;5.05;;;;;;;19.12;62.19;101088.41;6113255;19;20348;-72
2023/07/16 06:38:56;;;;;;;14.25;5.57;;;;;;;19.48;61.07;101091.97;6113600;19;20007;-72
2023/07/16 06:41:03;;;;;;;13.13;5.20;;;;;;;19.62;60.97;101091.81;6110907;19;20023;-71
2023/07/16 06:43:08;;;;;;;11.85;5.00;;;;;;;19.22;62.17;101085.88;6111695;19;20090;-72
2023/07/16 06:45:13;;;;;;;12.60;5.03;;;;;;;19.07;62.94;101093.19;6110746;19;20015;-72
2023/07/16 06:47:19;;;;;;;12.30;4.47;;;;;;;18.86;62.77;101088.44;6112734;19;20015;-72
2023/07/16 06:49:29;;;;;;;11.48;5.40;;;;;;;19.50;61.80;101106.03;6111493;19;20010;-73
2023/07/16 06:51:36;;;;;;;17.58;4.80;;;;;;;19.25;62.71;101097.19;6113734;19;20014;-72
2023/07/16 06:53:42;;;;;;;12.27;5.53;;;;;;;18.86;62.83;101096.44;6111623;19;20015;-73
2023/07/16 06:55:49;;;;;;;14.57;4.97;;;;;;;18.60;63.65;101108.88;6113206;19;20397;-74
2023/07/16 06:57:55;;;;;;;17.67;5.43;;;;;;;18.82;63.22;101115.38;6111200;19;20011;-73
2023/07/16 07:00:03;;;;;;;14.20;5.72;;;;;;;18.76;63.99;101116.69;6112484;19;20010;-73
2023/07/16 07:02:09;;;;;;;15.93;5.18;;;;;;;18.78;63.89;101109.44;6111886;19;20393;-73
2023/07/16 07:04:17;;;;;;;12.57;5.28;;;;;;;18.88;63.68;101114.97;6111638;19;20377;-73
2023/07/16 07:06:25;;;;;;;13.82;5.63;;;;;;;18.84;63.85;101117.00;6111682;19;20097;-73
2023/07/16 07:08:30;;;;;;;13.70;4.93;;;;;;;19.40;62.30;101124.50;6112360;19;20015;-73
2023/07/16 07:10:37;;;;;;;15.85;5.43;;;;;;;20.15;59.86;101110.09;6112045;19;20523;-73
2023/07/16 07:12:42;;;;;;;11.05;5.25;;;;;;;20.14;59.92;101098.56;6110172;19;20033;-72
2023/07/16 07:14:49;;;;;;;12.82;4.95;;;;;;;20.30;58.89;101121.38;6111647;19;20026;-74
2023/07/16 07:16:55;;;;;;;13.68;4.82;;;;;;;20.01;59.71;101120.94;6108013;19;20428;-73
2023/07/16 07:19:03;;;;;;;14.35;5.65;;;;;;;19.64;60.71;101129.88;6110879;19;20022;-74
2023/07/16 07:21:06;;;;;;;15.07;5.70;;;;;;;19.28;61.48;101128.09;6109219;19;20018;-74
2023/07/16 07:23:15;;;;;;;14.10;5.38;;;;;;;19.29;61.65;101127.97;6114380;19;20473;-73
2023/07/16 07:25:20;;;;;;;13.90;5.97;;;;;;;19.17;61.96;101131.53;6109798;19;20026;-73
2023/07/16 07:27:26;;;;;;;14.50;5.80;;;;;;;19.02;62.76;101132.63;6111084;19;20341;-73
2023/07/16 07:29:32;;;;;;;11.75;6.30;;;;;;;18.96;63.10;101146.41;6113783;19;20467;-70
2023/07/16 07:31:37;;;;;;;12.80;5.07;;;;;;;18.80;63.63;101150.13;6111260;19;20447;-72
2023/07/16 07:33:43;;;;;;;13.23;4.78;;;;;;;18.69;63.64;101133.16;6112079;19;20425;-72
2023/07/16 07:35:48;;;;;;;11.55;4.97;;;;;;;18.76;63.18;101147.78;6111768;19;20086;-73
2023/07/16 07:37:55;;;;;;;13.45;5.10;;;;;;;18.79;63.68;101137.75;6111972;19;20022;-73
2023/07/16 07:40:07;;;;;;;10.63;4.45;;;;;;;19.80;60.76;101152.75;6113658;19;20022;-74
2023/07/16 07:42:12;;;;;;;14.02;5.03;;;;;;;19.55;61.44;101133.22;6114389;19;20054;-73
2023/07/16 07:44:17;;;;;;;14.02;5.85;;;;;;;19.13;62.61;101146.03;6112007;19;20011;-72
2023/07/16 07:46:22;;;;;;;11.80;5.30;;;;;;;19.37;62.60;101153.22;6113750;19;20014;-72
2023/07/16 07:48:28;;;;;;;15.23;5.30;;;;;;;19.17;62.72;101144.84;6112927;19;20014;-72
2023/07/16 07:50:33;;;;;;;14.45;4.43;;;;;;;18.88;63.56;101151.38;6113437;19;20011;-72
2023/07/16 07:52:39;;;;;;;11.75;4.70;;;;;;;18.89;63.97;101159.28;6110702;19;20026;-73
2023/07/16 07:54:44;;;;;;;18.17;5.47;;;;;;;18.68;64.06;101163.41;6112386;19;20013;-71
2023/07/16 07:56:52;;;;;;;13.30;4.85;;;;;;;18.70;64.10;101165.00;6111886;19;20006;-71
2023/07/16 07:59:00;;;;;;;13.52;5.45;;;;;;;18.68;64.25;101185.56;6113920;19;20082;-72
2023/07/16 08:01:10;;;;;;;11.32;5.32;;;;;;;18.71;64.08;101172.03;6109076;19;20007;-72
2023/07/16 08:03:16;;;;;;;13.75;4.93;;;;;;;18.82;64.20;101172.16;6112917;19;20600;-74
2023/07/16 08:05:22;;;;;;;10.23;4.78;;;;;;;18.90;64.41;101168.09;6112721;19;25328;-72
2023/07/16 08:07:28;;;;;;;15.23;5.60;;;;;;;19.25;63.59;101171.78;6112886;19;20039;-72
2023/07/16 08:09:33;;;;;;;11.48;5.35;;;;;;;19.29;63.94;101191.91;6110922;19;20089;-73
2023/07/16 08:11:36;;;;;;;12.20;5.50;;;;;;;19.32;63.26;101177.53;6116361;19;20382;-72
2023/07/16 08:13:44;;;;;;;11.73;4.18;;;;;;;19.34;63.62;101186.25;6115904;19;20040;-73
2023/07/16 08:15:50;;;;;;;10.88;4.13;;;;;;;20.13;61.69;101179.56;6116063;19;20022;-74
2023/07/16 08:17:59;;;;;;;12.18;4.55;;;;;;;19.69;60.94;101180.22;6116908;19;20007;-74
2023/07/16 08:20:04;;;;;;;11.90;4.40;;;;;;;19.77;60.29;101185.81;6117295;19;20373;-74
2023/07/16 08:22:12;;;;;;;11.00;4.47;;;;;;;19.66;61.10;101183.06;6117190;19;20035;-72
2023/07/16 08:24:18;;;;;;;9.98;3.88;;;;;;;19.25;62.58;101185.13;6114417;19;20006;-72
2023/07/16 08:26:23;;;;;;;12.05;4.72;;;;;;;19.32;62.79;101193.50;6113708;19;20018;-72
2023/07/16 08:28:28;;;;;;;10.45;4.85;;;;;;;19.19;63.06;101188.19;6116177;19;20011;-73
2023/07/16 08:30:39;;;;;;;11.10;4.50;;;;;;;19.21;63.77;101196.09;6116146;19;20031;-73
2023/07/16 08:32:47;;;;;;;12.38;4.72;;;;;;;19.27;63.54;101191.19;6115268;19;20050;-72
2023/07/16 08:34:52;;;;;;;11.00;5.05;;;;;;;19.24;63.40;101209.19;6115113;19;20018;-74
2023/07/16 08:36:59;;;;;;;15.88;4.70;;;;;;;19.35;63.25;101203.94;6114440;19;20019;-72
2023/07/16 08:39:07;;;;;;;10.77;4.15;;;;;;;20.03;61.69;101199.06;6112102;19;20022;-71
2023/07/16 08:41:12;;;;;;;14.57;4.45;;;;;;;19.81;61.68;101200.66;6115908;19;20014;-72
2023/07/16 08:43:19;;;;;;;11.68;5.15;;;;;;;19.89;61.28;101203.59;6112898;19;20014;-73
2023/07/16 08:45:28;;;;;;;14.85;4.97;;;;;;;19.46;61.88;101205.88;6113770;19;20140;-72
2023/07/16 08:47:37;;;;;;;12.50;4.72;;;;;;;19.53;62.24;101204.44;6114234;19;20357;-74
2023/07/16 08:49:45;;;;;;;13.55;5.60;;;;;;;19.48;61.92;101209.25;6114567;19;20086;-71
2023/07/16 08:51:51;;;;;;;14.57;4.80;;;;;;;19.60;62.48;101216.38;6109725;19;20020;-72
2023/07/16 08:53:56;;;;;;;15.65;5.18;;;;;;;19.74;61.66;101218.91;6113508;19;20010;-73
2023/07/16 08:56:05;;;;;;;11.68;5.30;;;;;;;19.56;62.26;101217.53;6114463;19;20066;-72
2023/07/16 08:58:10;;;;;;;13.90;5.07;;;;;;;19.45;62.07;101214.81;6114394;19;20464;-76
2023/07/16 09:00:18;;;;;;;10.57;4.60;;;;;;;19.39;62.11;101212.59;6113381;19;20085;-73
2023/07/16 09:02:24;;;;;;;12.23;4.47;;;;;;;19.48;61.10;101225.25;6116354;19;20052;-73
2023/07/16 09:04:33;;;;;;;13.02;4.78;;;;;;;19.65;61.69;101216.88;6109103;19;20520;-74
2023/07/16 09:06:38;;;;;;;14.20;5.03;;;;;;;19.54;61.52;101230.16;6114878;19;20488;-72
2023/07/16 09:08:44;;;;;;;12.35;4.47;;;;;;;19.82;60.64;101218.34;6115749;19;20005;-74
2023/07/16 09:10:57;;;;;;;12.77;4.68;;;;;;;19.61;60.52;101217.22;6116186;19;20358;-73
2023/07/16 09:13:03;;;;;;;11.40;4.85;;;;;;;19.70;60.09;101230.78;6112271;19;20460;-73
2023/07/16 09:15:09;;;;;;;7.60;4.07;;;;;;;19.87;59.17;101215.34;6111961;19;20046;-72
2023/07/16 09:17:15;;;;;;;10.68;4.10;;;;;;;20.26;57.09;101216.00;6113076;19;20018;-71
2023/07/16 09:19:18;;;;;;;10.55;3.75;;;;;;;20.09;58.71;101219.94;6114458;19;20017;-73
2023/07/16 09:21:28;;;;;;;11.38;4.18;;;;;;;20.11;59.06;101224.19;6111390;19;20019;-73
2023/07/16 09:23:34;;;;;;;12.35;4.10;;;;;;;19.95;60.24;101228.97;6113552;19;20011;-71
2023/07/16 09:25:40;;;;;;;14.82;5.28;;;;;;;19.92;60.46;101232.72;6113827;19;20031;-72
2023/07/16 09:27:45;;;;;;;13.77;4.40;;;;;;;19.95;60.95;101235.16;6114834;19;20090;-72
2023/07/16 09:29:50;;;;;;;12.00;5.18;;;;;;;19.78;61.29;101232.88;6113818;19;20006;-72
2023/07/16 09:31:54;;;;;;;10.20;4.47;;;;;;;19.77;60.92;101236.50;6111469;19;20395;-72
2023/07/16 09:34:03;;;;;;;9.80;4.43;;;;;;;20.17;59.84;101231.75;6115318;19;20010;-72
2023/07/16 09:36:08;;;;;;;11.32;4.57;;;;;;;20.15;59.61;101241.69;6113562;19;20010;-73
2023/07/16 09:38:16;;;;;;;10.93;3.88;;;;;;;20.24;58.21;101228.63;6112688;19;20043;-72
2023/07/16 09:40:21;;;;;;;11.15;3.22;;;;;;;20.48;57.29;101231.25;6115001;19;20032;-73
2023/07/16 09:42:26;;;;;;;15.50;3.60;;;;;;;20.36;56.70;101228.56;6112761;19;20082;-72